Time;durP1;ratioP1;P1;durP2;ratioP2;P2;SDS_P1;SDS_P2;PMS_P1;PMS_P2;Temp;Humidity;BMP_temperature;BMP_pressure;BME280_temperature;BME280_humidity;BME280_pressure;Samples;Min_cycle;Max_cycle;Signal;HPM_P1;HPM_P2
2023/09/16 00:00:48;;;;;;;5.80;2.70;;;;;;;14.64;100.00;100773.55;1412384;91;21331;-79
2023/09/16 00:03:14;;;;;;;2.73;1.60;;;;;;;14.65;100.00;100768.57;1422358;91;22380;-79
2023/09/16 00:05:40;;;;;;;4.17;1.77;;;;;;;14.64;100.00;100771.74;1418684;91;21403;-79
2023/09/16 00:08:08;;;;;;;3.13;1.80;;;;;;;14.62;100.00;100776.89;1420115;91;21456;-80
2023/09/16 00:10:34;;;;;;;5.07;2.10;;;;;;;14.63;100.00;100779.87;1406125;91;21590;-79
2023/09/16 00:13:01;;;;;;;3.63;2.10;;;;;;;14.62;100.00;100776.89;1424248;91;21405;-79
2023/09/16 00:15:27;;;;;;;2.80;1.90;;;;;;;14.59;100.00;100771.91;1430036;91;21603;-79
2023/09/16 00:17:53;;;;;;;5.10;2.57;;;;;;;14.61;100.00;100779.20;1428947;91;21404;-80
2023/09/16 00:20:21;;;;;;;4.10;1.40;;;;;;;14.64;100.00;100773.55;1425706;91;21465;-81
2023/09/16 00:22:48;;;;;;;3.23;1.93;;;;;;;14.67;100.00;100778.54;1426283;91;21533;-81
2023/09/16 00:25:15;;;;;;;2.77;1.67;;;;;;;14.70;100.00;100779.54;1425237;91;22365;-81
2023/09/16 00:27:41;;;;;;;4.80;1.90;;;;;;;14.72;100.00;100788.71;1428666;91;21504;-81
2023/09/16 00:30:08;;;;;;;2.53;1.60;;;;;;;14.71;100.00;100777.23;1424874;91;21398;-79
2023/09/16 00:32:34;;;;;;;3.90;2.27;;;;;;;14.70;100.00;100780.87;1403499;91;21512;-79
2023/09/16 00:35:03;;;;;;;4.27;1.70;;;;;;;14.70;100.00;100787.53;1425325;91;21434;-79
2023/09/16 00:37:30;;;;;;;6.73;1.83;;;;;;;14.65;100.00;100790.71;1428335;91;21515;-79
2023/09/16 00:39:56;;;;;;;3.20;1.77;;;;;;;14.67;100.00;100786.53;1429086;91;22255;-79
2023/09/16 00:42:22;;;;;;;3.97;2.20;;;;;;;14.68;100.00;100781.56;1426328;91;21508;-78
2023/09/16 00:44:49;;;;;;;2.43;1.70;;;;;;;14.69;100.00;100779.72;1405004;91;21875;-78
2023/09/16 00:47:15;;;;;;;5.20;1.73;;;;;;;14.71;100.00;100785.73;1426909;91;21368;-77
2023/09/16 00:49:43;;;;;;;5.00;1.80;;;;;;;14.70;100.00;100784.87;1431773;91;21570;-77
2023/09/16 00:52:10;;;;;;;5.43;1.90;;;;;;;14.64;100.00;100790.86;1405145;91;21406;-78
2023/09/16 00:54:37;;;;;;;2.60;1.90;;;;;;;14.59;100.00;100786.55;1421800;91;21516;-78
2023/09/16 00:57:08;;;;;;;2.93;1.97;;;;;;;14.56;100.00;100790.88;1419608;91;21488;-78
2023/09/16 00:59:36;;;;;;;2.90;2.33;;;;;;;14.49;100.00;100795.15;1430737;91;21618;-78
2023/09/16 01:02:03;;;;;;;2.93;1.80;;;;;;;14.48;100.00;100789.50;1428965;91;21427;-78
2023/09/16 01:04:31;;;;;;;2.80;1.80;;;;;;;14.44;100.00;100791.16;1425439;91;21953;-78
2023/09/16 01:06:57;;;;;;;2.60;1.97;;;;;;;14.43;100.00;100793.47;1426001;91;22306;-78
2023/09/16 01:09:24;;;;;;;7.33;2.00;;;;;;;14.42;100.00;100793.14;1427604;91;21464;-78
2023/09/16 01:11:50;;;;;;;2.33;2.10;;;;;;;14.39;100.00;100789.98;1424252;91;21626;-78
2023/09/16 01:14:16;;;;;;;8.40;2.00;;;;;;;14.35;100.00;100793.95;1427938;91;21375;-78
2023/09/16 01:16:50;;;;;;;6.00;1.90;;;;;;;14.28;100.00;100799.10;1417037;91;22520;-78
2023/09/16 01:19:43;;;;;;;3.43;1.93;;;;;;;14.24;100.00;100793.75;1424599;91;22314;-77
2023/09/16 01:22:10;;;;;;;4.53;2.50;;;;;;;14.23;100.00;100794.76;1424664;91;21456;-78
2023/09/16 01:24:36;;;;;;;10.27;2.43;;;;;;;14.22;100.00;100800.58;1422695;91;22350;-76
2023/09/16 01:27:03;;;;;;;2.80;2.43;;;;;;;14.20;100.00;100796.41;1426648;91;21523;-75
2023/09/16 01:29:29;;;;;;;4.73;1.67;;;;;;;14.16;100.00;100787.92;1424722;91;21433;-75
2023/09/16 01:32:00;;;;;;;13.03;2.13;;;;;;;14.09;100.00;100786.06;1428643;91;22389;-75
2023/09/16 01:34:41;;;;;;;3.20;2.17;;;;;;;14.07;100.00;100786.24;1423602;91;21286;-75
2023/09/16 01:37:15;;;;;;;2.75;2.22;;;;;;;14.04;100.00;100788.37;1431823;91;21670;-75
2023/09/16 01:39:47;;;;;;;6.70;2.03;;;;;;;13.99;100.00;100787.54;1429240;91;21396;-74
2023/09/16 01:42:15;;;;;;;3.80;2.13;;;;;;;13.93;100.00;100782.87;1427611;91;22270;-75
2023/09/16 01:44:41;;;;;;;3.03;1.90;;;;;;;13.89;100.00;100787.65;1423302;91;21353;-75
2023/09/16 01:47:07;;;;;;;3.07;1.90;;;;;;;13.84;100.00;100785.99;1403112;91;21375;-75
2023/09/16 01:49:34;;;;;;;2.80;2.07;;;;;;;13.84;100.00;100791.31;1423097;91;22308;-77
2023/09/16 01:52:00;;;;;;;3.70;1.93;;;;;;;13.83;100.00;100792.79;1421814;91;22545;-78
2023/09/16 01:54:26;;;;;;;3.73;2.03;;;;;;;13.83;100.00;100791.46;1406960;91;21465;-77
2023/09/16 01:56:52;;;;;;;5.20;1.80;;;;;;;13.82;100.00;100789.30;1423349;91;21352;-77
2023/09/16 01:59:18;;;;;;;4.07;2.30;;;;;;;13.84;100.00;100792.64;1400544;91;21419;-77
2023/09/16 02:01:46;;;;;;;2.60;1.93;;;;;;;13.82;100.00;100786.64;1428294;91;21569;-76
2023/09/16 02:04:13;;;;;;;2.97;1.83;;;;;;;13.81;100.00;100784.98;1429480;91;21598;-76
2023/09/16 02:06:41;;;;;;;3.97;2.13;;;;;;;13.77;100.00;100787.61;1431541;91;21374;-76
2023/09/16 02:09:07;;;;;;;2.63;1.87;;;;;;;13.72;100.00;100790.77;1431049;91;21367;-76
2023/09/16 02:11:33;;;;;;;3.93;1.90;;;;;;;13.68;100.00;100788.57;1426252;91;21555;-76
2023/09/16 02:13:59;;;;;;;4.53;1.90;;;;;;;13.67;100.00;100789.58;1427981;91;21463;-75
2023/09/16 02:16:25;;;;;;;5.23;2.90;;;;;;;13.65;100.00;100794.20;1408480;91;21611;-77
2023/09/16 02:18:51;;;;;;;2.53;1.80;;;;;;;13.66;100.00;100795.87;1426911;91;21456;-76
2023/09/16 02:21:17;;;;;;;3.60;1.90;;;;;;;13.67;100.00;100797.55;1422176;91;22334;-76
2023/09/16 02:23:44;;;;;;;2.87;1.90;;;;;;;13.67;100.00;100801.05;1422680;91;21508;-76
2023/09/16 02:26:10;;;;;;;3.00;1.63;;;;;;;13.66;100.00;100788.72;1426789;91;21420;-76
2023/09/16 02:28:36;;;;;;;4.57;2.17;;;;;;;13.64;100.00;100784.58;1421629;91;22443;-77
2023/09/16 02:31:03;;;;;;;2.40;1.50;;;;;;;13.59;100.00;100782.87;1430052;91;21419;-77
2023/09/16 02:33:29;;;;;;;2.90;2.20;;;;;;;13.59;100.00;100790.86;1424320;91;21478;-77
2023/09/16 02:35:55;;;;;;;4.83;2.23;;;;;;;13.58;100.00;100790.50;1428320;91;21411;-77
2023/09/16 02:38:21;;;;;;;3.17;2.10;;;;;;;13.57;100.00;100792.83;1430601;91;22330;-77
2023/09/16 02:40:47;;;;;;;9.77;3.43;;;;;;;13.56;100.00;100789.84;1429888;91;21331;-77
2023/09/16 02:43:13;;;;;;;6.13;2.60;;;;;;;13.56;100.00;100785.86;1424824;91;21449;-76
2023/09/16 02:45:43;;;;;;;6.97;2.83;;;;;;;13.54;100.00;100791.31;1435021;91;21425;-76
2023/09/16 02:48:10;;;;;;;2.70;1.83;;;;;;;13.52;100.00;100786.17;1426281;91;21947;-76
2023/09/16 02:50:38;;;;;;;4.43;1.90;;;;;;;13.52;100.00;100789.30;1429038;91;22291;-76
2023/09/16 02:53:06;;;;;;;4.07;2.10;;;;;;;13.50;100.00;100786.82;1425160;91;21353;-76
2023/09/16 02:55:32;;;;;;;3.60;2.23;;;;;;;13.48;100.00;100788.80;1427380;91;22308;-76
2023/09/16 02:58:00;;;;;;;4.70;2.20;;;;;;;13.45;100.00;100790.44;1402688;91;21367;-76
2023/09/16 03:00:26;;;;;;;4.20;2.80;;;;;;;13.44;100.00;100791.44;1429592;91;21361;-76
2023/09/16 03:02:53;;;;;;;3.17;2.03;;;;;;;13.44;100.00;100795.43;1426272;91;22447;-77
2023/09/16 03:05:22;;;;;;;3.33;2.03;;;;;;;13.44;100.00;100791.44;1417826;91;21601;-77
2023/09/16 03:07:51;;;;;;;5.90;2.10;;;;;;;13.40;100.00;100792.73;1433402;91;21462;-77
2023/09/16 03:10:19;;;;;;;4.90;2.10;;;;;;;13.39;100.00;100803.03;1425648;91;21585;-78
2023/09/16 03:12:45;;;;;;;4.03;2.93;;;;;;;13.37;100.00;100798.36;1406987;91;21361;-77
2023/09/16 03:15:11;;;;;;;3.33;2.53;;;;;;;13.36;100.00;100797.20;1427521;91;21455;-78
2023/09/16 03:17:38;;;;;;;5.30;2.47;;;;;;;13.37;100.00;100794.88;1430422;91;21434;-78
2023/09/16 03:20:07;;;;;;;2.63;2.07;;;;;;;13.34;100.00;100798.67;1423408;91;21418;-78
2023/09/16 03:22:33;;;;;;;2.83;2.10;;;;;;;13.32;100.00;100796.66;1425850;91;22225;-77
2023/09/16 03:25:00;;;;;;;4.03;1.93;;;;;;;13.28;100.00;100796.65;1429913;91;21411;-77
2023/09/16 03:27:26;;;;;;;7.23;2.53;;;;;;;13.27;100.00;100796.32;1425558;91;22057;-77
2023/09/16 03:29:52;;;;;;;2.70;1.90;;;;;;;13.25;100.00;100795.59;1421009;91;21545;-77
2023/09/16 03:32:18;;;;;;;4.60;2.53;;;;;;;13.20;100.00;100804.03;1432510;91;21384;-77
2023/09/16 03:34:45;;;;;;;3.47;1.97;;;;;;;13.21;100.00;100807.55;1421686;91;21597;-77
2023/09/16 03:37:11;;;;;;;6.43;1.90;;;;;;;13.16;100.00;100805.34;1434667;91;22181;-77
2023/09/16 03:39:37;;;;;;;2.70;1.70;;;;;;;13.17;100.00;100800.86;1423983;91;21486;-77
2023/09/16 03:42:03;;;;;;;3.60;2.27;;;;;;;13.18;100.00;100805.20;1435085;91;21958;-77
2023/09/16 03:44:30;;;;;;;2.77;2.00;;;;;;;13.17;100.00;100800.86;1421915;91;21922;-78
2023/09/16 03:46:56;;;;;;;2.30;1.90;;;;;;;13.13;100.00;100800.84;1426971;91;21482;-79
2023/09/16 03:49:22;;;;;;;3.73;2.20;;;;;;;13.13;100.00;100804.33;1433228;91;22247;-79
2023/09/16 03:51:48;;;;;;;5.33;2.13;;;;;;;13.12;100.00;100803.14;1428332;91;22433;-77
2023/09/16 03:54:15;;;;;;;2.40;1.90;;;;;;;13.08;100.00;100803.45;1428133;91;21382;-76
2023/09/16 03:56:41;;;;;;;5.97;2.60;;;;;;;13.07;100.00;100803.62;1421908;91;21567;-76
2023/09/16 03:59:07;;;;;;;5.67;2.37;;;;;;;13.06;100.00;100807.25;1431389;91;21345;-77
2023/09/16 04:01:33;;;;;;;4.53;2.00;;;;;;;13.04;100.00;100807.41;1426831;91;22329;-77
2023/09/16 04:03:59;;;;;;;8.30;2.27;;;;;;;13.03;100.00;100811.08;1437239;91;22138;-77
2023/09/16 04:06:26;;;;;;;3.83;2.33;;;;;;;13.01;100.00;100813.04;1427429;91;21839;-77
2023/09/16 04:08:53;;;;;;;3.53;2.63;;;;;;;13.02;100.00;100806.73;1425568;91;21516;-77
2023/09/16 04:11:19;;;;;;;10.10;3.17;;;;;;;13.02;100.00;100805.40;1427658;91;21457;-77
2023/09/16 04:13:46;;;;;;;6.13;2.40;;;;;;;13.03;100.00;100803.57;1428935;91;21494;-77
2023/09/16 04:16:12;;;;;;;3.53;2.50;;;;;;;13.01;100.00;100803.73;1428044;91;21486;-77
2023/09/16 04:18:38;;;;;;;4.37;2.50;;;;;;;13.01;100.00;100809.05;1428843;91;21589;-77
2023/09/16 04:21:06;;;;;;;4.03;2.37;;;;;;;13.01;100.00;100807.73;1425503;91;22291;-77
2023/09/16 04:23:35;;;;;;;7.80;2.63;;;;;;;13.01;100.00;100803.73;1423206;91;21471;-77
2023/09/16 04:26:01;;;;;;;5.13;2.43;;;;;;;13.03;100.00;100797.79;1424054;91;21404;-77
2023/09/16 04:28:29;;;;;;;5.20;2.23;;;;;;;13.09;100.00;100796.34;1422623;91;22275;-77
2023/09/16 04:30:56;;;;;;;3.40;2.33;;;;;;;13.09;100.00;100798.99;1420980;91;21549;-79
2023/09/16 04:33:22;;;;;;;3.33;2.20;;;;;;;13.09;100.00;100805.14;1420066;91;22328;-79
2023/09/16 04:35:51;;;;;;;10.70;2.60;;;;;;;13.10;100.00;100814.77;1401667;91;21390;-79
2023/09/16 04:38:19;;;;;;;3.07;2.07;;;;;;;13.10;100.00;100812.11;1419296;91;21820;-79
2023/09/16 04:40:49;;;;;;;4.90;2.50;;;;;;;13.09;100.00;100815.77;1426771;91;21360;-79
2023/09/16 04:43:15;;;;;;;3.42;2.08;;;;;;;13.12;100.00;100814.62;1417707;91;21656;-78
2023/09/16 04:45:48;;;;;;;7.60;2.80;;;;;;;13.17;100.00;100814.14;1424646;91;21346;-79
2023/09/16 04:48:15;;;;;;;3.10;2.07;;;;;;;13.19;100.00;100807.69;1415906;91;21493;-79
2023/09/16 04:50:45;;;;;;;3.23;2.40;;;;;;;13.21;100.00;100807.55;1430429;91;22474;-76
2023/09/16 04:53:12;;;;;;;4.35;2.27;;;;;;;13.27;100.00;100807.78;1422780;91;21375;-76
2023/09/16 04:55:38;;;;;;;3.33;1.80;;;;;;;13.33;100.00;100808.98;1426196;91;21839;-76
2023/09/16 04:58:05;;;;;;;4.33;2.17;;;;;;;13.36;100.00;100814.48;1426052;91;21398;-76
2023/09/16 05:00:33;;;;;;;6.00;3.13;;;;;;;13.40;100.00;100812.67;1426837;91;22374;-76
2023/09/16 05:03:04;;;;;;;7.13;3.30;;;;;;;13.44;100.00;100814.04;1432610;91;21559;-77
2023/09/16 05:05:31;;;;;;;2.83;2.17;;;;;;;13.46;100.00;100812.03;1430379;91;21413;-77
2023/09/16 05:07:58;;;;;;;6.00;2.60;;;;;;;13.54;100.00;100820.06;1421675;91;21337;-77
2023/09/16 05:10:24;;;;;;;5.83;2.80;;;;;;;13.62;100.00;100821.13;1425682;91;22396;-76
2023/09/16 05:12:50;;;;;;;6.57;2.50;;;;;;;13.67;100.00;100817.50;1423387;91;21398;-76
2023/09/16 05:15:16;;;;;;;2.70;2.07;;;;;;;13.73;100.00;100819.52;1429161;91;21494;-76
2023/09/16 05:17:43;;;;;;;3.67;2.70;;;;;;;13.80;100.00;100821.88;1423164;91;22559;-77
2023/09/16 05:20:10;;;;;;;3.63;2.37;;;;;;;13.87;100.00;100818.92;1425479;91;21478;-76
2023/09/16 05:22:38;;;;;;;4.23;2.73;;;;;;;13.98;100.00;100827.96;1425583;91;21604;-79
2023/09/16 05:25:05;;;;;;;7.03;2.63;;;;;;;14.07;100.00;100829.30;1429380;91;21486;-81
2023/09/16 05:27:32;;;;;;;3.73;2.20;;;;;;;14.14;100.00;100836.48;1423929;91;21374;-81
2023/09/16 05:29:58;;;;;;;2.87;2.40;;;;;;;14.22;100.00;100834.36;1428491;91;22351;-80
2023/09/16 05:32:24;;;;;;;4.43;2.63;;;;;;;14.25;100.00;100829.22;1425381;91;21367;-77
2023/09/16 05:34:50;;;;;;;5.60;2.27;;;;;;;14.31;100.00;100832.05;1429111;91;21324;-77
2023/09/16 05:37:16;;;;;;;6.13;2.30;;;;;;;14.42;100.00;100841.08;1423722;91;21382;-76
2023/09/16 05:39:42;;;;;;;5.73;2.40;;;;;;;14.52;100.00;100837.46;1421469;91;22255;-77
2023/09/16 05:42:09;;;;;;;4.03;2.73;;;;;;;14.60;100.00;100831.65;1420064;91;21346;-77
2023/09/16 05:44:36;;;;;;;5.07;3.07;;;;;;;14.69;100.00;100833.00;1422349;91;21993;-76
2023/09/16 05:47:02;;;;;;;3.73;2.87;;;;;;;14.77;100.00;100828.52;1426964;91;21449;-77
2023/09/16 05:49:28;;;;;;;5.53;2.60;;;;;;;14.86;100.00;100827.52;1422549;91;21457;-77
2023/09/16 05:51:55;;;;;;;7.20;2.90;;;;;;;14.92;100.00;100826.52;1429404;91;21552;-77
2023/09/16 05:54:22;;;;;;;5.77;2.83;;;;;;;15.01;100.00;100826.85;1400390;91;22514;-77
2023/09/16 05:56:49;;;;;;;4.63;2.50;;;;;;;15.15;100.00;100830.19;1430122;91;22240;-77
2023/09/16 05:59:15;;;;;;;4.37;2.80;;;;;;;15.22;100.00;100832.53;1428056;91;21568;-77
2023/09/16 06:01:42;;;;;;;13.90;3.43;;;;;;;15.39;100.00;100837.81;1424851;91;21353;-78
2023/09/16 06:04:11;;;;;;;6.03;3.50;;;;;;;15.48;100.00;100839.50;1425928;91;22328;-77
2023/09/16 06:06:37;;;;;;;6.67;2.93;;;;;;;15.55;100.00;100831.13;1409894;91;22217;-77
2023/09/16 06:09:03;;;;;;;4.30;2.90;;;;;;;15.67;100.00;100839.09;1426838;91;21368;-77
2023/09/16 06:11:30;;;;;;;4.23;3.37;;;;;;;15.76;100.00;100833.27;1428831;91;21404;-77
2023/09/16 06:13:56;;;;;;;6.53;3.07;;;;;;;15.90;100.00;100833.89;1429112;91;21360;-77
2023/09/16 06:16:23;;;;;;;7.17;3.13;;;;;;;16.01;100.00;100835.36;1422455;91;21479;-77
2023/09/16 06:18:49;;;;;;;8.03;3.03;;;;;;;16.10;100.00;100832.15;1427901;91;22216;-78
2023/09/16 06:21:15;;;;;;;9.80;3.50;;;;;;;16.19;100.00;100827.92;1426267;91;21397;-78
2023/09/16 06:23:42;;;;;;;5.83;3.63;;;;;;;16.29;100.00;100824.22;1426926;91;22299;-77
2023/09/16 06:26:10;;;;;;;6.90;3.50;;;;;;;16.44;100.00;100829.14;1424774;91;21562;-77
2023/09/16 06:28:41;;;;;;;3.20;2.70;;;;;;;16.58;100.00;100832.90;1426393;91;22249;-77
2023/09/16 06:31:08;;;;;;;6.50;3.90;;;;;;;16.73;100.00;100832.96;1426442;91;21389;-78
2023/09/16 06:33:34;;;;;;;4.17;3.17;;;;;;;16.91;100.00;100837.52;1428762;91;21404;-78
2023/09/16 06:36:00;;;;;;;4.83;3.83;;;;;;;17.05;100.00;100830.05;1432302;91;21382;-77
2023/09/16 06:38:27;;;;;;;6.73;4.50;;;;;;;17.07;100.00;100833.90;1427441;91;22516;-78
2023/09/16 06:40:53;;;;;;;3.20;2.90;;;;;;;17.17;100.00;100837.14;1418158;91;21376;-79
2023/09/16 06:43:19;;;;;;;4.72;3.30;;;;;;;17.34;100.00;100836.48;1423342;91;21463;-78
2023/09/16 06:45:48;;;;;;;14.60;3.87;;;;;;;17.45;100.00;100830.70;1426860;91;21412;-78
2023/09/16 06:48:14;;;;;;;5.87;3.55;;;;;;;17.60;100.00;100841.41;1429391;91;21434;-79
2023/09/16 06:50:40;;;;;;;9.55;3.87;;;;;;;17.66;100.00;100841.18;1418755;91;21382;-77
2023/09/16 06:53:07;;;;;;;10.60;3.77;;;;;;;17.69;100.00;100838.14;1421210;91;21419;-76
2023/09/16 06:55:33;;;;;;;9.78;4.55;;;;;;;17.78;100.00;100846.42;1424987;91;21721;-76
2023/09/16 06:58:04;;;;;;;7.35;4.00;;;;;;;17.79;100.00;100845.43;1437011;91;21478;-91
2023/09/16 07:00:28;;;;;;;7.90;4.00;;;;;;;17.87;100.00;100845.34;1424604;91;21500;-89
2023/09/16 07:02:56;;;;;;;4.55;3.05;;;;;;;18.04;100.00;100847.32;1430096;91;21456;-92
2023/09/16 07:05:22;;;;;;;6.72;3.40;;;;;;;18.18;100.00;100841.59;1397398;91;22395;-91
2023/09/16 07:07:48;;;;;;;4.80;3.95;;;;;;;18.27;100.00;100851.22;1427897;91;21426;-87
2023/09/16 07:10:15;;;;;;;5.55;3.20;;;;;;;18.44;100.00;100846.44;1419719;91;21564;-88
2023/09/16 07:12:41;;;;;;;4.87;3.58;;;;;;;18.55;100.00;100851.82;1420837;91;22344;-83
2023/09/16 07:15:09;;;;;;;4.78;3.90;;;;;;;18.79;100.00;100854.19;1427074;91;21962;-86
2023/09/16 07:17:36;;;;;;;11.25;4.00;;;;;;;19.01;100.00;100859.53;1429450;91;21439;-89
2023/09/16 07:20:04;;;;;;;8.08;3.83;;;;;;;19.19;100.00;100857.72;1423909;91;21456;-88
2023/09/16 07:22:30;;;;;;;4.55;4.12;;;;;;;19.36;100.00;100853.73;1426784;91;22384;-87
2023/09/16 07:24:57;;;;;;;7.50;4.20;;;;;;;19.48;100.00;100856.70;1425239;91;21874;-91
2023/09/16 07:27:25;;;;;;;7.30;3.87;;;;;;;19.69;100.00;100859.38;1404393;91;21545;-88
2023/09/16 07:29:51;;;;;;;4.97;3.95;;;;;;;19.83;100.00;100858.95;1431693;91;21537;-88
2023/09/16 07:32:17;;;;;;;4.17;3.30;;;;;;;19.99;100.00;100857.78;1422989;91;21507;-88
2023/09/16 07:34:43;;;;;;;7.70;3.92;;;;;;;20.11;100.00;100861.58;1411320;91;22298;-90
2023/09/16 07:37:10;;;;;;;3.40;3.10;;;;;;;20.26;100.00;100864.13;1428044;91;22609;-87
2023/09/16 07:39:36;;;;;;;7.37;4.45;;;;;;;20.35;100.00;100862.91;1420928;91;21419;-89
2023/09/16 07:42:03;;;;;;;9.75;4.85;;;;;;;20.45;100.00;100862.52;1426797;91;21359;-88
2023/09/16 07:44:29;;;;;;;5.20;3.90;;;;;;;20.58;100.00;100859.91;1426718;91;21675;-90
2023/09/16 07:46:55;;;;;;;4.78;3.67;;;;;;;20.72;100.00;100861.61;1427227;91;21442;-85
2023/09/16 07:49:23;;;;;;;5.17;3.65;;;;;;;20.79;100.00;100858.09;1427669;91;22543;-88
2023/09/16 07:51:49;;;;;;;5.55;4.08;;;;;;;20.93;100.00;100855.22;1428122;91;21456;-90
2023/09/16 07:54:16;;;;;;;5.55;3.40;;;;;;;21.12;100.00;100854.93;1425673;91;21353;-91
2023/09/16 07:56:42;;;;;;;8.68;4.37;;;;;;;21.23;100.00;100852.64;1421444;91;21538;-90
2023/09/16 07:59:08;;;;;;;7.70;4.08;;;;;;;21.23;100.00;100859.37;1429354;91;21471;-89
2023/09/16 08:01:34;;;;;;;8.73;4.03;;;;;;;21.17;100.00;100861.84;1427816;91;21382;-92
2023/09/16 08:04:01;;;;;;;9.28;4.47;;;;;;;21.13;100.00;100849.84;1403068;91;22537;-87
2023/09/16 08:06:27;;;;;;;6.62;4.05;;;;;;;21.12;100.00;100856.80;1424152;91;21337;-88
2023/09/16 08:08:54;;;;;;;10.53;4.50;;;;;;;21.13;100.00;100857.92;1502817;91;21302;-90
2023/09/16 08:11:20;;;;;;;7.10;4.12;;;;;;;21.19;100.00;100857.09;1354708;91;21494;-89
2023/09/16 08:13:47;;;;;;;6.03;4.28;;;;;;;21.29;100.00;100855.84;1355369;91;22087;-88
2023/09/16 08:16:14;;;;;;;7.08;4.47;;;;;;;21.36;100.00;100849.45;1359830;91;21316;-82
2023/09/16 08:18:40;;;;;;;8.58;4.70;;;;;;;21.50;100.00;100850.28;1374565;91;21441;-81
2023/09/16 08:21:06;;;;;;;10.85;5.00;;;;;;;21.69;100.00;100849.09;1401888;91;22448;-80
2023/09/16 08:23:32;;;;;;;5.95;4.87;;;;;;;21.76;100.00;100849.92;1424621;91;21729;-80
2023/09/16 08:25:59;;;;;;;10.80;4.47;;;;;;;21.92;100.00;100856.70;1420953;91;21442;-80
2023/09/16 08:28:25;;;;;;;13.03;4.87;;;;;;;22.16;100.00;100854.66;1425224;91;21398;-81
2023/09/16 08:30:51;;;;;;;10.48;4.83;;;;;;;22.36;100.00;100845.17;1426485;91;21549;-81
2023/09/16 08:33:17;;;;;;;5.28;4.58;;;;;;;22.60;100.00;100843.58;1426638;91;22271;-81
2023/09/16 08:35:44;;;;;;;89.50;7.35;;;;;;;22.80;100.00;100845.33;1421972;91;21420;-80
2023/09/16 08:38:10;;;;;;;23.47;4.95;;;;;;;23.00;100.00;100847.92;1425216;91;21382;-82
2023/09/16 08:40:36;;;;;;;7.33;4.20;;;;;;;23.12;100.00;100846.16;1406257;91;21382;-81
2023/09/16 08:43:20;;;;;;;5.62;4.72;;;;;;;23.26;100.00;100849.58;1405165;91;21707;-81
2023/09/16 08:45:51;;;;;;;10.43;5.03;;;;;;;23.35;100.00;100846.89;1427519;91;21455;-79
2023/09/16 08:48:21;;;;;;;31.20;5.15;;;;;;;23.48;100.00;100844.08;1426477;91;21538;-80
2023/09/16 08:50:51;;;;;;;6.17;3.98;;;;;;;23.62;100.00;100844.74;1424905;91;21398;-81
2023/09/16 08:53:19;;;;;;;5.30;4.03;;;;;;;23.79;100.00;100847.19;1421525;91;21389;-80
2023/09/16 08:55:46;;;;;;;9.30;4.12;;;;;;;23.95;100.00;100836.84;1424282;91;21449;-79
2023/09/16 08:58:14;;;;;;;7.05;4.10;;;;;;;24.07;100.00;100826.92;1406081;91;21563;-79
2023/09/16 09:00:41;;;;;;;6.28;2.92;;;;;;;24.23;100.00;100826.84;1423504;91;21479;-80
2023/09/16 09:03:07;;;;;;;7.30;3.50;;;;;;;24.36;100.00;100827.98;1424647;91;21440;-80
2023/09/16 09:05:36;;;;;;;22.65;4.12;;;;;;;24.44;100.00;100830.95;1427518;91;22285;-78
2023/09/16 09:08:08;;;;;;;6.58;5.30;;;;;;;24.54;100.00;100827.14;1334029;93;21294;-79
2023/09/16 09:10:32;;;;;;;4.83;2.50;;;;;;;24.69;100.00;100831.62;1351273;90;21338;-80
2023/09/16 09:13:00;;;;;;;5.20;2.25;;;;;;;24.82;100.00;100825.16;1361552;91;21384;-80
2023/09/16 09:15:27;;;;;;;7.58;4.12;;;;;;;24.93;100.00;100824.90;1353611;91;21339;-80
2023/09/16 09:17:58;;;;;;;2.47;2.27;;;;;;;25.04;100.00;100824.63;1354188;91;22241;-79
2023/09/16 09:20:27;;;;;;;5.70;3.12;;;;;;;25.13;100.00;100829.45;1365223;91;21500;-79
2023/09/16 09:22:54;;;;;;;3.20;2.67;;;;;;;25.17;100.00;100825.23;1352288;91;21427;-80
2023/09/16 09:25:25;;;;;;;6.40;2.95;;;;;;;25.24;100.00;100832.45;1354247;91;21405;-81
2023/09/16 09:27:53;;;;;;;3.65;2.77;;;;;;;25.29;100.00;100829.84;1471706;91;21353;-82
2023/09/16 09:30:26;;;;;;;5.12;2.90;;;;;;;25.36;100.00;100831.91;1426859;91;21360;-81
2023/09/16 09:32:57;;;;;;;2.75;2.35;;;;;;;25.40;100.00;100829.02;1426673;91;21526;-81
2023/09/16 09:35:29;;;;;;;4.70;2.87;;;;;;;25.44;100.00;100834.27;1425495;91;22358;-83
2023/09/16 09:37:56;;;;;;;3.30;2.50;;;;;;;25.47;100.00;100835.16;1407848;91;21501;-81
2023/09/16 09:40:23;;;;;;;5.25;2.17;;;;;;;25.37;100.00;100827.59;1429493;91;21449;-82
2023/09/16 09:42:52;;;;;;;3.22;2.12;;;;;;;25.40;100.00;100834.44;1403624;91;21367;-82
2023/09/16 09:45:21;;;;;;;5.27;2.47;;;;;;;25.39;100.00;100834.16;1424170;91;21398;-82
2023/09/16 09:47:50;;;;;;;3.60;2.33;;;;;;;25.45;100.00;100830.49;1405677;91;21990;-81
2023/09/16 09:50:19;;;;;;;7.45;2.20;;;;;;;25.52;100.00;100824.44;1426399;91;21434;-83
2023/09/16 09:52:54;;;;;;;8.37;2.87;;;;;;;25.56;100.00;100828.31;1425668;91;21382;-83
2023/09/16 09:55:26;;;;;;;3.52;2.47;;;;;;;25.57;100.00;100828.59;1425420;91;21382;-82
2023/09/16 09:57:53;;;;;;;6.25;2.92;;;;;;;25.57;100.00;100834.02;1473058;91;22300;-80
2023/09/16 10:00:22;;;;;;;3.55;2.58;;;;;;;25.64;100.00;100829.84;1405162;91;21456;-81
2023/09/16 10:02:50;;;;;;;4.62;2.52;;;;;;;25.70;100.00;100828.07;1402356;91;22112;-82
2023/09/16 10:05:23;;;;;;;4.53;2.27;;;;;;;25.80;100.00;100830.98;1424290;91;22344;-81
2023/09/16 10:07:51;;;;;;;6.67;2.10;;;;;;;25.86;100.00;100830.88;1425168;91;21389;-81
2023/09/16 10:14:18;;;;;;;5.72;2.90;;;;;;;25.85;100.00;100822.99;1490176;91;21619;-82
2023/09/16 10:16:46;;;;;;;4.25;2.22;;;;;;;25.85;100.00;100825.70;1429756;91;21397;-82
2023/09/16 10:19:13;;;;;;;6.55;2.40;;;;;;;25.82;100.00;100827.51;1402545;91;21419;-82
2023/09/16 10:21:40;;;;;;;4.75;2.37;;;;;;;25.80;100.00;100828.27;1426213;91;21382;-83
2023/09/16 10:24:12;;;;;;;3.35;2.67;;;;;;;25.81;100.00;100821.80;1423987;91;22277;-81
2023/09/16 10:26:36;;;;;;;3.52;2.40;;;;;;;25.85;100.00;100824.34;1390389;91;21353;-81
2023/09/16 10:29:03;;;;;;;4.35;2.90;;;;;;;25.83;100.00;100825.93;1428007;91;22259;-80
2023/09/16 10:31:31;;;;;;;8.40;2.47;;;;;;;25.85;100.00;100825.70;1402506;91;21412;-81
2023/09/16 10:33:58;;;;;;;5.83;2.80;;;;;;;25.98;100.00;100824.59;1353625;91;21264;-82
2023/09/16 10:36:26;;;;;;;6.30;2.50;;;;;;;26.10;100.00;100814.56;1362065;91;21309;-82
2023/09/16 10:38:54;;;;;;;4.17;2.52;;;;;;;26.20;100.00;100819.34;1426948;91;21427;-81
2023/09/16 10:41:21;;;;;;;3.52;2.87;;;;;;;26.28;100.00;100823.04;1402519;91;21486;-82
2023/09/16 10:43:48;;;;;;;3.65;2.55;;;;;;;26.24;100.00;100817.28;1423517;91;21448;-82
2023/09/16 10:46:16;;;;;;;5.97;3.08;;;;;;;26.09;100.00;100815.61;1427083;91;21412;-83
2023/09/16 10:48:43;;;;;;;6.10;3.15;;;;;;;25.95;100.00;100817.80;1426817;91;21383;-82
2023/09/16 10:51:14;;;;;;;5.20;2.72;;;;;;;26.00;100.00;100813.80;1424026;91;21538;-81
2023/09/16 10:53:42;;;;;;;3.45;2.58;;;;;;;26.14;100.00;100810.83;1426859;91;21626;-81
2023/09/16 10:56:31;;;;;;;3.67;3.10;;;;;;;26.22;100.00;100811.80;1405649;91;21674;-82
2023/09/16 10:59:10;;;;;;;3.92;3.15;;;;;;;26.26;100.00;100815.66;1420125;90;21516;-82
2023/09/16 11:01:53;;;;;;;5.12;3.00;;;;;;;26.26;100.00;100806.17;1424230;91;21545;-81
2023/09/16 11:08:20;;;;;;;3.95;2.67;;;;;;;26.57;100.00;100795.91;1424339;91;21686;-82
2023/09/16 11:10:46;;;;;;;6.30;3.00;;;;;;;26.90;100.00;100805.45;1428564;91;21434;-80
2023/09/16 11:13:14;;;;;;;5.25;2.90;;;;;;;27.12;100.00;100806.05;1425912;91;22211;-80
2023/09/16 11:19:38;;;;;;;4.83;2.80;;;;;;;27.26;100.00;100794.34;1500038;91;21383;-81
2023/09/16 11:22:04;;;;;;;7.00;2.90;;;;;;;27.09;100.00;100792.96;1500559;91;21354;-80
2023/09/16 11:24:36;;;;;;;8.73;3.10;;;;;;;27.13;100.00;100795.45;1341486;93;22196;-81
2023/09/16 11:27:02;;;;;;;4.78;3.05;;;;;;;27.15;100.00;100793.32;1505695;91;21332;-80
2023/09/16 11:29:31;;;;;;;7.45;3.15;;;;;;;27.27;100.00;100791.36;1355258;91;21341;-80